createdAt,value
2023-03-23T15:59:14.992Z,16.80
2023-03-23T16:01:41.716Z,16.80
2023-03-23T16:04:14.335Z,16.70
2023-03-23T16:06:40.661Z,16.60
2023-03-23T16:09:07.049Z,16.50
2023-03-23T16:11:33.745Z,16.50
2023-03-23T16:14:00.958Z,16.40
2023-03-23T16:16:37.023Z,16.40
2023-03-23T16:19:03.450Z,16.40
2023-03-23T16:21:29.844Z,16.20
2023-03-23T16:23:56.628Z,16.20
2023-03-23T16:26:24.056Z,16.10
2023-03-23T16:28:50.629Z,16.00
2023-03-23T16:31:18.601Z,15.90
2023-03-23T16:33:46.348Z,15.90
2023-03-23T16:36:12.786Z,15.70
2023-03-23T16:38:49.366Z,15.70
2023-03-23T16:41:17.623Z,15.60
2023-03-23T16:43:44.772Z,15.60
2023-03-23T16:46:11.444Z,15.50
2023-03-23T16:48:38.464Z,15.50
2023-03-23T16:51:06.467Z,15.40
2023-03-23T16:53:32.757Z,15.30
2023-03-23T16:55:59.497Z,15.20
2023-03-23T16:58:27.155Z,15.20
2023-03-23T17:00:53.466Z,15.10
2023-03-23T17:03:21.179Z,15.00
2023-03-23T17:05:51.360Z,14.90
2023-03-23T17:08:19.624Z,14.80
2023-03-23T17:10:46.126Z,14.80
2023-03-23T17:13:12.374Z,14.70
2023-03-23T17:15:40.547Z,14.70
2023-03-23T17:18:07.591Z,14.70
2023-03-23T17:20:34.611Z,14.60
2023-03-23T17:23:00.792Z,14.50
2023-03-23T17:25:27.739Z,14.50
2023-03-23T17:27:54.531Z,14.40
2023-03-23T17:30:20.907Z,14.40
2023-03-23T17:32:48.256Z,14.30
2023-03-23T17:35:15.138Z,14.30
2023-03-23T17:37:41.944Z,14.30
2023-03-23T17:40:09.939Z,14.30
2023-03-23T17:42:37.517Z,14.30
2023-03-23T17:45:06.618Z,14.30
2023-03-23T17:47:33.514Z,14.30
2023-03-23T17:49:59.976Z,14.30
2023-03-23T17:52:26.179Z,14.20
2023-03-23T17:54:53.444Z,14.20
2023-03-23T17:57:20.462Z,14.10
2023-03-23T17:59:47.006Z,14.10
2023-03-23T18:02:13.569Z,14.00
2023-03-23T18:04:41.822Z,14.00
2023-03-23T18:07:08.865Z,14.00
2023-03-23T18:09:35.681Z,14.00
2023-03-23T18:12:02.347Z,14.10
2023-03-23T18:14:28.658Z,14.10
2023-03-23T18:16:55.463Z,14.10
2023-03-23T18:19:22.361Z,14.20
2023-03-23T18:21:49.667Z,14.20
2023-03-23T18:24:16.621Z,14.20
2023-03-23T18:26:43.228Z,14.10
2023-03-23T18:29:09.502Z,14.10
2023-03-23T18:31:39.247Z,14.20
2023-03-23T18:34:05.488Z,14.20
2023-03-23T18:36:32.302Z,14.20
2023-03-23T18:38:59.637Z,14.30
2023-03-23T18:41:26.245Z,14.30
2023-03-23T18:43:52.710Z,14.30
2023-03-23T18:46:19.042Z,14.40
2023-03-23T18:48:45.616Z,14.50
2023-03-23T18:51:11.766Z,14.40
2023-03-23T18:53:37.986Z,14.40
2023-03-23T18:56:10.225Z,14.40
2023-03-23T18:58:38.268Z,14.40
2023-03-23T19:01:08.330Z,14.40
2023-03-23T19:03:35.571Z,14.40
2023-03-23T19:06:04.030Z,14.40
2023-03-23T19:08:30.958Z,14.40
2023-03-23T19:11:00.263Z,14.40
2023-03-23T19:13:27.908Z,14.30
2023-03-23T19:15:54.410Z,14.20
2023-03-23T19:18:20.801Z,14.10
2023-03-23T19:21:12.681Z,14.00
2023-03-23T19:23:41.582Z,13.90
2023-03-23T19:26:07.868Z,13.80
2023-03-23T19:31:05.738Z,13.70
2023-03-23T19:33:33.575Z,13.70
2023-03-23T19:38:32.033Z,13.60
2023-03-23T19:41:03.609Z,13.50
2023-03-23T19:43:31.249Z,13.40
2023-03-23T19:45:57.606Z,13.40
2023-03-23T19:48:24.070Z,13.40
2023-03-23T19:50:52.603Z,13.30
2023-03-23T19:53:19.527Z,13.30
2023-03-23T19:55:46.332Z,13.30
2023-03-23T19:58:12.618Z,13.20
2023-03-23T20:00:38.894Z,13.20
2023-03-23T20:03:05.737Z,13.20
2023-03-23T20:05:34.325Z,13.20
2023-03-23T20:08:02.746Z,13.10
2023-03-23T20:10:30.371Z,13.20
2023-03-23T20:12:57.822Z,13.20
2023-03-23T20:15:24.966Z,13.20
2023-03-23T20:17:51.840Z,13.30
2023-03-23T20:20:20.203Z,13.40
2023-03-23T20:22:46.589Z,13.40
2023-03-23T20:25:13.972Z,13.40
2023-03-23T20:27:42.248Z,13.40
2023-03-23T20:30:09.752Z,13.40
2023-03-23T20:32:36.706Z,13.40
2023-03-23T20:35:08.652Z,13.40
2023-03-23T20:37:37.544Z,13.40
2023-03-23T20:40:07.799Z,13.30
2023-03-23T20:42:34.587Z,13.30
2023-03-23T20:45:02.015Z,13.20
2023-03-23T20:47:28.292Z,13.20
2023-03-23T20:49:55.531Z,13.20
2023-03-23T20:52:23.042Z,13.20
2023-03-23T20:54:50.873Z,13.00
2023-03-23T20:57:18.771Z,13.00
2023-03-23T20:59:45.197Z,12.80
2023-03-23T21:02:14.889Z,12.60
2023-03-23T21:04:42.178Z,12.50
2023-03-23T21:07:10.309Z,12.40
2023-03-23T21:09:37.373Z,12.30
2023-03-23T21:12:04.486Z,12.10
2023-03-23T21:14:31.049Z,12.40
2023-03-23T21:17:01.403Z,11.80
2023-03-23T21:19:29.226Z,11.50
2023-03-23T21:21:57.217Z,11.40
2023-03-23T21:24:29.086Z,11.30
2023-03-23T21:26:56.888Z,11.20
2023-03-23T21:29:23.478Z,11.10
2023-03-23T21:32:01.205Z,11.00
2023-03-23T21:34:33.891Z,11.00
2023-03-23T21:37:00.143Z,11.00
2023-03-23T21:39:28.821Z,11.10
2023-03-23T21:41:55.074Z,11.10
2023-03-23T21:44:21.607Z,11.10
2023-03-23T21:46:49.212Z,11.10
2023-03-23T21:49:15.613Z,11.10
2023-03-23T21:51:42.865Z,11.00
2023-03-23T21:54:10.912Z,11.00
2023-03-23T21:56:37.850Z,10.80
2023-03-23T21:59:06.759Z,10.70
2023-03-23T22:01:36.958Z,10.50
2023-03-23T22:04:05.725Z,10.40
2023-03-23T22:06:34.913Z,10.30
2023-03-23T22:09:04.581Z,10.10
2023-03-23T22:11:32.067Z,10.00
2023-03-23T22:13:58.370Z,9.90
2023-03-23T22:16:25.445Z,9.90
2023-03-23T22:18:52.622Z,9.90
2023-03-23T22:21:22.111Z,10.00
2023-03-23T22:23:49.005Z,10.10
2023-03-23T22:26:16.703Z,10.10
2023-03-23T22:28:45.156Z,10.00
2023-03-23T22:31:18.148Z,9.90
2023-03-23T22:33:45.599Z,9.80
2023-03-23T22:36:13.327Z,9.80
2023-03-23T22:38:41.365Z,9.80
2023-03-23T22:41:07.954Z,9.60
2023-03-23T22:43:36.041Z,9.60
2023-03-23T22:46:04.176Z,9.50
2023-03-23T22:48:31.008Z,9.40
2023-03-23T22:50:58.440Z,9.30
2023-03-23T22:53:25.455Z,9.20
2023-03-23T22:55:54.566Z,9.10
2023-03-23T22:58:20.877Z,9.10
2023-03-23T23:00:50.606Z,9.00
2023-03-23T23:03:18.052Z,9.00
2023-03-23T23:05:45.862Z,9.00
2023-03-23T23:08:14.663Z,9.00
2023-03-23T23:10:45.644Z,9.00
2023-03-23T23:13:13.918Z,9.00
2023-03-23T23:15:42.835Z,8.90
2023-03-23T23:18:09.647Z,9.00
2023-03-23T23:20:36.081Z,9.00
2023-03-23T23:23:02.363Z,8.90
2023-03-23T23:25:28.879Z,8.90
2023-03-23T23:27:57.562Z,8.80
2023-03-23T23:30:25.127Z,8.80
2023-03-23T23:32:52.041Z,8.90
2023-03-23T23:35:19.795Z,8.90
2023-03-23T23:37:46.158Z,9.00
2023-03-23T23:40:15.236Z,9.10
2023-03-23T23:42:46.256Z,9.20
2023-03-23T23:45:13.275Z,9.40
2023-03-23T23:47:40.274Z,9.50
2023-03-23T23:50:07.995Z,9.60
2023-03-23T23:52:35.330Z,9.70
2023-03-23T23:55:03.617Z,9.80
2023-03-23T23:57:29.939Z,9.90
2023-03-23T23:59:56.384Z,9.90
